Flight Track Log - Related Links

Times and Time Zones

All times are in EDT time to prevent confusion due to time zone crossing. See the JZA8278 flight status page for this flight to view local times or setup timezone preferences in your user account.


Time Position Orientation Groundspeed Altitude Reporting Facility
EDT Latitude Longitude Course Direction KTS MPH feet Rate Location/Type
Sun 11:30:10 AM 49.1667 -123.1833 334° Northwest 130 150 500  Level Vancouver Center
Sun 11:31:10 AM 49.1667 -123.2333 270° West 140 161 2,100 1,450 Climbing Vancouver Center
Sun 11:32:10 AM 49.1833 -123.3167 287° West 150 173 3,400 1,350 Climbing Vancouver Center
Sun 11:33:10 AM 49.2000 -123.3667 297° West 150 173 4,800 1,350 Climbing Vancouver Center
Sun 11:34:00 AM 49.2793 -123.3021 331° Northwest  Level FlightAware Approximate
Sun 11:34:10 AM 49.2333 -123.4167 316° Northwest 170 196 6,100  Level Vancouver Center
Sun 11:35:00 AM 49.3449 -123.3587 334° Northwest  Level FlightAware Approximate
Sun 11:35:10 AM 49.2667 -123.4667 316° Northwest 170 196 7,400  Level Vancouver Center
Sun 11:36:10 AM 49.3000 -123.5167 316° Northwest 180 207 8,400 1,150 Climbing Vancouver Center
Sun 11:37:10 AM 49.3333 -123.5667 316° Northwest 190 219 9,700 1,250 Climbing Vancouver Center
Sun 11:38:10 AM 49.3667 -123.6500 302° West 190 219 10,900 1,150 Climbing Vancouver Center
Sun 11:39:10 AM 49.4000 -123.7000 316° Northwest 190 219 12,000 1,150 Climbing Vancouver Center
Sun 11:40:10 AM 49.4500 -123.7500 327° Northwest 190 219 13,200 1,150 Climbing Vancouver Center
Sun 11:41:10 AM 49.4833 -123.8000 316° Northwest 190 219 14,300 950 Climbing Vancouver Center
Sun 11:42:10 AM 49.5333 -123.8500 327° Northwest 190 219 15,100 850 Climbing Vancouver Center
Sun 11:43:10 AM 49.5667 -123.9000 316° Northwest 200 230 16,000 750 Climbing Vancouver Center
Sun 11:44:10 AM 49.6167 -123.9833 313° West 200 230 16,600 650 Climbing Vancouver Center
Sun 11:45:10 AM 49.6667 -124.0333 327° Northwest 210 242 17,300 750 Climbing Vancouver Center
Sun 11:46:10 AM 49.7167 -124.0833 327° Northwest 210 242 18,100 700 Climbing Vancouver Center
Sun 11:47:10 AM 49.7500 -124.1333 316° Northwest 220 253 18,700 650 Climbing Vancouver Center
Sun 11:48:10 AM 49.8000 -124.2167 313° West 220 253 19,400 600 Climbing Vancouver Center
Sun 11:49:10 AM 49.8500 -124.2667 327° Northwest 220 253 19,900 550 Climbing Vancouver Center
Sun 11:50:10 AM 49.9000 -124.3167 327° Northwest 220 253 20,500 600 Climbing Vancouver Center
Sun 11:51:10 AM 49.9333 -124.4000 302° West 220 253 21,100 550 Climbing Vancouver Center
Sun 11:52:10 AM 49.9833 -124.4500 327° Northwest 220 253 21,600 450 Climbing Vancouver Center
Sun 11:53:10 AM 50.0333 -124.5000 327° Northwest 220 253 22,000 200 Climbing Vancouver Center
Sun 11:54:10 AM 50.0833 -124.5833 313° West 230 265 22,000  Level Vancouver Center
Sun 11:55:10 AM 50.1333 -124.6333 327° Northwest 240 276 22,000  Level Vancouver Center
Sun 11:56:10 AM 50.1833 -124.7167 313° West 250 288 22,000  Level Vancouver Center
Sun 11:57:10 AM 50.2500 -124.7667 334° Northwest 260 299 22,000  Level Vancouver Center
Sun 11:58:10 AM 50.3000 -124.8500 313° West 260 299 22,000  Level Vancouver Center
Sun 11:59:10 AM 50.3500 -124.9167 320° Northwest 260 299 22,000  Level Vancouver Center
Sun 12:00:10 PM 50.4167 -125.0000 321° Northwest 260 299 22,000  Level Vancouver Center
Sun 12:01:10 PM 50.4667 -125.0500 328° Northwest 260 299 22,000  Level Vancouver Center
Sun 12:02:10 PM 50.5167 -125.1333 313° West 260 299 22,000  Level Vancouver Center
Sun 12:03:10 PM 50.5833 -125.2167 322° Northwest 260 299 22,000  Level Vancouver Center
Sun 12:04:10 PM 50.6333 -125.3000 313° West 260 299 22,000  Level Vancouver Center
Sun 12:05:10 PM 50.6833 -125.3833 313° West 260 299 22,000  Level Vancouver Center
Sun 12:06:10 PM 50.7500 -125.4333 335° Northwest 260 299 22,000  Level Vancouver Center
Sun 12:07:10 PM 50.8000 -125.5167 314° West 260 299 22,000  Level Vancouver Center
Sun 12:08:10 PM 50.8500 -125.6000 314° West 260 299 22,000  Level Vancouver Center
Sun 12:09:10 PM 50.9167 -125.6833 322° Northwest 270 311 22,000  Level Vancouver Center
Sun 12:10:10 PM 50.9667 -125.7667 314° West 270 311 22,000  Level Vancouver Center
Sun 12:11:10 PM 51.0167 -125.8500 314° West 270 311 22,000  Level Vancouver Center
Sun 12:12:10 PM 51.0667 -125.9000 328° Northwest 270 311 22,000  Level Vancouver Center
Sun 12:13:10 PM 51.1333 -125.9833 322° Northwest 270 311 22,000  Level Vancouver Center
Sun 12:14:10 PM 51.1833 -126.0667 314° West 270 311 22,000  Level Vancouver Center
Sun 12:15:10 PM 51.2500 -126.1500 322° Northwest 270 311 22,000  Level Vancouver Center
Sun 12:16:10 PM 51.3000 -126.2333 314° West 270 311 22,000  Level Vancouver Center
Sun 12:17:10 PM 51.3667 -126.3167 322° Northwest 270 311 22,000  Level Vancouver Center
Sun 12:18:10 PM 51.4167 -126.4000 314° West 270 311 22,000  Level Vancouver Center
Sun 12:19:10 PM 51.4833 -126.4833 322° Northwest 270 311 22,000  Level Vancouver Center
Sun 12:20:10 PM 51.5500 -126.5667 322° Northwest 280 322 22,000  Level Vancouver Center
Sun 12:21:10 PM 51.6000 -126.6167 328° Northwest 280 322 22,000  Level Vancouver Center
Sun 12:22:10 PM 51.6500 -126.7000 314° West 280 322 22,000  Level Vancouver Center
Sun 12:23:10 PM 51.7000 -126.7833 314° West 280 322 22,000  Level Vancouver Center
Sun 12:25:10 PM 51.8167 -126.9667 316° Northwest 270 311 22,000  Level Vancouver Center
Sun 12:26:10 PM 51.8833 -127.0500 322° Northwest 270 311 22,000  Level Vancouver Center
Sun 12:27:10 PM 51.9333 -127.1333 314° West 270 311 22,000  Level Vancouver Center
Sun 12:28:10 PM 52.0000 -127.2167 322° Northwest 270 311 22,000  Level Vancouver Center
Sun 12:29:10 PM 52.0500 -127.3000 314° West 270 311 22,000  Level Vancouver Center
Sun 12:30:10 PM 52.1000 -127.3833 314° West 270 311 22,000  Level Vancouver Center
Sun 12:31:10 PM 52.1500 -127.4667 314° West 270 311 22,000  Level Vancouver Center
Sun 12:32:10 PM 52.2167 -127.5333 329° Northwest 270 311 22,000  Level Vancouver Center
Sun 12:33:10 PM 52.2667 -127.6167 314° West 270 311 22,000  Level Vancouver Center
Sun 12:34:10 PM 52.3333 -127.7000 323° Northwest 270 311 22,000  Level Vancouver Center
Sun 12:35:10 PM 52.3833 -127.7833 315° West 270 311 22,000  Level Vancouver Center
Sun 12:36:10 PM 52.4333 -127.8833 309° West 270 311 22,000  Level Vancouver Center
Sun 12:37:10 PM 52.4833 -127.9667 315° West 280 322 22,000  Level Vancouver Center
Sun 12:38:10 PM 52.5500 -128.0500 323° Northwest 270 311 22,000  Level Vancouver Center
Sun 12:39:10 PM 52.6000 -128.1167 321° Northwest 270 311 22,000  Level Vancouver Center
Sun 12:40:10 PM 52.6667 -128.2333 313° West 270 311 22,000  Level Vancouver Center
Sun 12:41:10 PM 52.7167 -128.2833 329° Northwest 270 311 22,000  Level Vancouver Center
Sun 12:42:10 PM 52.7667 -128.3833 310° West 270 311 22,000  Level Vancouver Center
Sun 12:43:10 PM 52.8167 -128.4667 315° West 270 311 22,000  Level Vancouver Center
Sun 12:44:10 PM 52.8833 -128.5500 323° Northwest 270 311 22,000  Level Vancouver Center
Sun 12:45:10 PM 52.9333 -128.6500 310° West 270 311 22,000  Level Vancouver Center
Sun 12:46:10 PM 53.0000 -128.7333 323° Northwest 280 322 22,000  Level Vancouver Center
Sun 12:47:10 PM 53.0333 -128.8167 304° West 280 322 22,000  Level Vancouver Center
Sun 12:48:10 PM 53.1000 -128.9167 318° Northwest 280 322 22,000  Level Vancouver Center
Sun 12:49:10 PM 53.1500 -129.0000 315° West 280 322 22,000  Level Vancouver Center
Sun 12:50:10 PM 53.2167 -129.1000 318° Northwest 280 322 22,000  Level Vancouver Center
Sun 12:51:10 PM 53.2833 -129.1833 323° Northwest 280 322 22,000 -200 Level Vancouver Center
Sun 12:52:10 PM 53.3167 -129.2833 299° West 280 322 21,600 -850 Descending Vancouver Center
Sun 12:53:10 PM 53.3833 -129.3667 323° Northwest 300 345 20,300 -1,400 Descending Vancouver Center
Sun 12:54:10 PM 53.4667 -129.5000 316° Northwest 330 380 18,800 -1,450 Descending Vancouver Center
Sun 12:55:10 PM 53.5333 -129.5833 323° Northwest 330 380 17,400 -1,400 Descending Vancouver Center
Sun 12:56:10 PM 53.5833 -129.6833 310° West 320 368 16,000 -1,400 Descending Vancouver Center
Sun 12:57:10 PM 53.6500 -129.8000 314° West 330 380 14,600 -1,400 Descending Vancouver Center
Sun 12:58:10 PM 53.7167 -129.9000 318° Northwest 320 368 13,200 -1,350 Descending Vancouver Center
Sun 12:59:10 PM 53.7667 -129.9833 315° West 300 345 11,900 -1,400 Descending Vancouver Center
Sun 01:00:10 PM 53.8333 -130.0833 319° Northwest 300 345 10,400 -1,600 Descending Vancouver Center
Sun 01:01:10 PM 53.9167 -130.1500 335° Northwest 300 345 8,700 -1,700 Descending Vancouver Center
Sun 01:02:10 PM 53.9833 -130.2167 330° Northwest 290 334 7,000 -1,800 Descending Vancouver Center
Sun 01:03:10 PM 54.0500 -130.2500 344° North 260 299 5,100 -1,500 Descending Vancouver Center
Sun 01:04:10 PM 54.0833 -130.3167 310° West 230 265 4,000 -1,100 Descending Vancouver Center
Sun 01:05:10 PM 54.1333 -130.3500 339° North 200 230 2,900 -1,050 Descending Vancouver Center
Sun 01:06:10 PM 54.1833 -130.3833 339° North 180 207 1,900 -850 Descending Vancouver Center
Sun 01:07:10 PM 54.2167 -130.4167 330° Northwest 160 184 1,200 -750 Descending Vancouver Center
Sun 01:08:10 PM 54.2667 -130.4667 330° Northwest 140 161 400 -800 Descending Vancouver Center

Login

Don't have an account? Register now (free) for customized features, flight alerts, and more!